Mill City, Nevada
Current Conditions -  °F | °C
As of 11:56 PM on Friday 19 Dec 2014 (Local Time) from KWMC Reporting Station
Overcast Overcast  
Wind Chill: 29°   Ceiling: 5500
Heat Index: 37°   Visibility: 10mi
Dew Point: 33°   Wind: 13mph
Humidity: 86%   Direction: 180°S
Pressure: 30.09"   Gusts: NA
Location:  40.601°N, 117.984°W
Report Text: KWMC 200756Z AUTO 18011KT 10SM FEW042 OVC055 03/01 A3009 RMK AO2 SLP193 T00280006 400560006
Loading
Personal Weather Stations






























Interactive Weather Map New forecast layout! Learn more

10-Day Weather Forecast

Advertisements
Track Severe Weather on mobile